Time;durP1;ratioP1;P1;durP2;ratioP2;P2;SDS_P1;SDS_P2;PMS_P1;PMS_P2;Temp;Humidity;BMP_temperature;BMP_pressure;BME280_temperature;BME280_humidity;BME280_pressure;Samples;Min_cycle;Max_cycle;Signal;HPM_P1;HPM_P2
2024/04/15 00:00:09;;;;;;;7.80;5.17;;;;;;;9.99;68.20;93893.66;566809;26;837;-72
2024/04/15 00:00:24;;;;;;;8.55;5.43;;;;;;;9.98;68.15;93894.94;566688;26;938;-72
2024/04/15 00:00:40;;;;;;;7.10;4.60;;;;;;;9.95;68.58;93893.97;566484;26;922;-72
2024/04/15 00:00:55;;;;;;;6.13;4.20;;;;;;;9.89;68.64;93891.34;566823;26;954;-72
2024/04/15 00:01:11;;;;;;;6.00;4.23;;;;;;;9.84;68.96;93888.69;566681;26;899;-72
2024/04/15 00:01:26;;;;;;;5.50;4.05;;;;;;;9.82;68.64;93897.50;566777;26;806;-72
2024/04/15 00:01:42;;;;;;;5.10;3.83;;;;;;;9.80;68.93;93897.31;566718;26;1007;-72
2024/04/15 00:01:57;;;;;;;6.28;4.13;;;;;;;9.75;69.07;93892.63;566736;26;913;-72
2024/04/15 00:02:12;;;;;;;6.53;4.13;;;;;;;9.73;69.16;93892.44;566785;26;786;-72
2024/04/15 00:02:28;;;;;;;5.05;4.03;;;;;;;9.67;69.53;93888.31;566671;26;900;-72
2024/04/15 00:02:43;;;;;;;4.80;4.10;;;;;;;9.63;69.51;93888.63;566682;26;916;-73
2024/04/15 00:02:59;;;;;;;4.70;4.00;;;;;;;9.59;70.00;93890.22;566733;26;846;-72
2024/04/15 00:03:15;;;;;;;4.80;3.70;;;;;;;9.57;69.82;93893.50;566821;26;805;-72
2024/04/15 00:03:31;;;;;;;5.80;3.72;;;;;;;9.59;70.00;93890.97;566577;26;786;-72
2024/04/15 00:03:46;;;;;;;5.88;3.60;;;;;;;9.63;69.81;93887.88;566723;26;953;-72
2024/04/15 00:04:02;;;;;;;4.97;3.53;;;;;;;9.62;70.08;93897.41;566835;26;854;-72
2024/04/15 00:04:17;;;;;;;3.97;3.47;;;;;;;9.63;70.18;93896.91;566723;26;856;-72
2024/04/15 00:04:33;;;;;;;3.57;3.27;;;;;;;9.64;69.89;93886.59;566841;26;829;-71
2024/04/15 00:04:48;;;;;;;3.53;3.10;;;;;;;9.67;69.84;93893.81;566639;26;857;-72
2024/04/15 00:05:04;;;;;;;3.93;3.13;;;;;;;9.70;69.97;93890.00;566789;26;793;-72
2024/04/15 00:05:19;;;;;;;3.72;3.22;;;;;;;9.74;69.58;93890.44;566719;26;952;-72
2024/04/15 00:05:37;;;;;;;3.43;3.03;;;;;;;9.79;69.57;93897.81;566792;26;786;-71
2024/04/15 00:05:52;;;;;;;4.25;2.92;;;;;;;9.82;69.04;93886.47;566746;26;897;-71
2024/04/15 00:06:07;;;;;;;4.60;3.17;;;;;;;9.86;68.72;93891.66;566716;26;782;-72
2024/04/15 00:06:23;;;;;;;3.72;3.15;;;;;;;9.88;69.05;93884.34;566710;26;1699;-72
2024/04/15 00:06:39;;;;;;;3.07;2.80;;;;;;;9.92;68.56;93892.28;566788;26;770;-71
2024/04/15 00:06:54;;;;;;;3.30;3.00;;;;;;;9.90;68.87;93892.06;566855;26;922;-72
2024/04/15 00:07:10;;;;;;;3.53;3.23;;;;;;;9.89;69.24;93887.84;566647;26;885;-72
2024/04/15 00:07:25;;;;;;;3.50;3.20;;;;;;;9.89;69.05;93879.56;566692;26;917;-71
2024/04/15 00:07:41;;;;;;;3.60;3.03;;;;;;;9.88;69.35;93898.13;566639;26;927;-71
2024/04/15 00:07:56;;;;;;;3.05;2.75;;;;;;;9.87;68.97;93888.38;566825;26;839;-71
2024/04/15 00:08:12;;;;;;;3.63;3.00;;;;;;;9.89;69.22;93893.38;566784;26;890;-71
2024/04/15 00:08:27;;;;;;;4.28;3.10;;;;;;;9.90;69.41;93892.81;566690;26;865;-71
2024/04/15 00:08:43;;;;;;;3.33;2.90;;;;;;;9.90;68.90;93895.59;566721;26;822;-71
2024/04/15 00:08:58;;;;;;;3.33;3.03;;;;;;;9.91;69.31;93901.84;566649;26;897;-72
2024/04/15 00:09:14;;;;;;;3.13;2.87;;;;;;;9.93;68.96;93896.53;566661;26;837;-72
2024/04/15 00:09:29;;;;;;;3.03;2.72;;;;;;;9.94;69.08;93900.75;566630;26;854;-72
2024/04/15 00:09:45;;;;;;;3.47;3.07;;;;;;;9.97;69.04;93898.97;566707;26;892;-72
2024/04/15 00:10:00;;;;;;;3.35;3.05;;;;;;;9.98;68.94;93898.44;566564;26;957;-72
2024/04/15 00:10:16;;;;;;;3.00;2.70;;;;;;;9.95;69.25;93888.47;566650;26;938;-72
2024/04/15 00:10:32;;;;;;;2.92;2.35;;;;;;;9.99;68.62;93891.63;566832;26;1323;-71
2024/04/15 00:10:48;;;;;;;2.95;2.40;;;;;;;9.99;68.14;93888.88;566765;26;1787;-72
2024/04/15 00:11:04;;;;;;;3.40;2.70;;;;;;;10.00;68.08;93895.91;566920;26;802;-71
2024/04/15 00:11:19;;;;;;;3.20;2.60;;;;;;;10.01;68.03;93889.09;566774;26;1649;-72
2024/04/15 00:11:36;;;;;;;2.63;2.42;;;;;;;10.03;67.95;93894.81;566792;26;846;-72
2024/04/15 00:11:51;;;;;;;2.70;2.50;;;;;;;10.06;67.64;93893.75;566666;26;830;-71
2024/04/15 00:12:07;;;;;;;2.80;2.60;;;;;;;10.06;67.40;93891.00;566930;26;996;-71
2024/04/15 00:12:22;;;;;;;2.83;2.63;;;;;;;10.05;67.22;93894.28;566764;26;869;-71
2024/04/15 00:12:38;;;;;;;3.03;2.73;;;;;;;10.07;66.99;93895.22;566808;26;989;-72
2024/04/15 00:12:53;;;;;;;3.00;2.70;;;;;;;10.06;67.15;93882.72;567051;26;822;-71
2024/04/15 00:13:09;;;;;;;2.57;2.37;;;;;;;10.07;67.32;93884.19;566906;26;814;-72
2024/04/15 00:13:24;;;;;;;2.83;2.38;;;;;;;10.11;67.07;93881.16;567156;26;901;-72
2024/04/15 00:13:40;;;;;;;3.90;2.50;;;;;;;10.11;67.15;93887.41;566855;26;1642;-71
2024/04/15 00:13:55;;;;;;;4.00;2.60;;;;;;;10.11;67.32;93884.66;567095;26;838;-71
2024/04/15 00:14:11;;;;;;;2.95;2.63;;;;;;;10.13;66.92;93889.63;566940;26;1837;-72
2024/04/15 00:14:26;;;;;;;3.00;2.70;;;;;;;10.09;67.01;93880.91;566998;26;897;-71
2024/04/15 00:14:42;;;;;;;3.55;2.80;;;;;;;10.09;67.10;93883.66;566912;26;913;-72
2024/04/15 00:14:58;;;;;;;3.33;2.65;;;;;;;10.08;67.01;93893.97;566892;26;866;-71
2024/04/15 00:15:13;;;;;;;3.10;2.70;;;;;;;10.09;66.87;93887.16;567035;26;967;-72
2024/04/15 00:15:29;;;;;;;2.67;2.33;;;;;;;10.12;66.71;93890.88;567010;26;830;-72
2024/04/15 00:15:55;;;;;;;2.37;2.17;;;;;;;9.98;66.89;93861.84;566982;26;853;-72
2024/04/15 00:16:10;;;;;;;3.67;2.67;;;;;;;10.14;66.99;93888.34;566940;26;842;-72
2024/04/15 00:16:26;;;;;;;3.65;2.53;;;;;;;10.15;66.79;93879.53;567036;26;953;-71
2024/04/15 00:16:42;;;;;;;2.70;2.33;;;;;;;10.16;66.86;93883.03;566803;26;938;-72
2024/04/15 00:16:58;;;;;;;2.88;2.38;;;;;;;10.17;66.56;93888.03;567026;26;901;-72
2024/04/15 00:17:13;;;;;;;2.75;2.50;;;;;;;10.18;66.81;93886.72;566842;26;931;-71
2024/04/15 00:17:29;;;;;;;3.20;2.70;;;;;;;10.19;66.42;93879.19;566998;26;915;-71
2024/04/15 00:17:44;;;;;;;3.27;2.80;;;;;;;10.18;66.61;93886.00;567004;26;830;-71
2024/04/15 00:18:00;;;;;;;3.15;2.85;;;;;;;10.19;66.20;93879.94;567042;26;943;-71
2024/04/15 00:18:15;;;;;;;3.97;2.87;;;;;;;10.21;66.29;93884.91;567066;26;972;-72
2024/04/15 00:18:31;;;;;;;4.40;2.85;;;;;;;10.20;66.41;93888.97;566963;26;849;-71
2024/04/15 00:18:46;;;;;;;3.63;2.73;;;;;;;10.20;66.11;93886.94;566907;26;777;-71
2024/04/15 00:19:02;;;;;;;3.65;2.65;;;;;;;10.21;66.44;93884.91;567074;26;802;-71
2024/04/15 00:19:17;;;;;;;3.30;2.80;;;;;;;10.22;66.13;93880.91;567047;26;789;-72
2024/04/15 00:19:32;;;;;;;3.10;2.67;;;;;;;10.23;66.07;93885.13;566944;26;944;-71
2024/04/15 00:19:51;;;;;;;2.67;2.40;;;;;;;10.26;66.21;93886.81;567059;26;790;-71
2024/04/15 00:20:07;;;;;;;2.53;2.30;;;;;;;10.27;66.02;93889.03;566839;26;850;-72
2024/04/15 00:20:22;;;;;;;2.97;2.50;;;;;;;10.29;65.91;93880.22;566898;26;885;-71
2024/04/15 00:20:38;;;;;;;3.20;2.67;;;;;;;10.28;66.01;93890.53;567095;26;814;-71
2024/04/15 00:21:00;;;;;;;2.90;2.60;;;;;;;10.29;65.93;93889.25;567015;26;900;-71
2024/04/15 00:21:15;;;;;;;3.08;2.67;;;;;;;10.30;66.01;93885.22;567073;26;901;-71
2024/04/15 00:21:31;;;;;;;2.58;2.38;;;;;;;10.31;65.95;93880.44;566759;26;923;-71
2024/04/15 00:21:46;;;;;;;2.57;2.27;;;;;;;10.30;65.71;93885.22;567024;26;1004;-71
2024/04/15 00:22:02;;;;;;;3.37;2.27;;;;;;;10.31;65.65;93885.97;567003;26;1359;-72
2024/04/15 00:22:17;;;;;;;3.33;2.30;;;;;;;10.30;65.66;93885.22;567083;26;889;-71
2024/04/15 00:22:33;;;;;;;3.30;2.50;;;;;;;10.32;65.41;93890.19;566962;26;881;-71
2024/04/15 00:22:48;;;;;;;3.87;2.53;;;;;;;10.32;65.47;93882.66;566902;26;905;-71
2024/04/15 00:23:03;;;;;;;3.50;2.47;;;;;;;10.33;65.57;93886.16;566936;26;819;-71
2024/04/15 00:23:19;;;;;;;3.00;2.70;;;;;;;10.34;65.47;93891.13;567022;26;936;-71
2024/04/15 00:23:34;;;;;;;3.13;2.60;;;;;;;10.34;65.03;93884.88;567029;26;1032;-72
2024/04/15 00:23:50;;;;;;;2.47;2.25;;;;;;;10.35;65.42;93880.84;566937;26;797;-71
2024/04/15 00:24:05;;;;;;;2.87;2.10;;;;;;;10.32;64.99;93884.66;567143;26;774;-71
2024/04/15 00:24:21;;;;;;;2.88;2.10;;;;;;;10.23;65.15;93885.13;566859;26;912;-71
2024/04/15 00:24:36;;;;;;;2.30;2.10;;;;;;;10.15;65.55;93879.53;567089;26;851;-71
2024/04/15 00:24:52;;;;;;;2.33;2.10;;;;;;;10.12;65.37;93877.84;566907;26;894;-72
2024/04/15 00:25:08;;;;;;;2.50;2.30;;;;;;;10.13;65.67;93882.09;566846;26;847;-72
2024/04/15 00:25:23;;;;;;;2.53;2.33;;;;;;;10.13;65.79;93875.81;567033;26;948;-71
2024/04/15 00:25:38;;;;;;;2.37;2.17;;;;;;;10.14;65.70;93875.28;566802;26;909;-72
2024/04/15 00:25:57;;;;;;;3.08;2.47;;;;;;;10.12;65.63;93875.06;567007;26;920;-72
2024/04/15 00:26:13;;;;;;;4.00;2.58;;;;;;;10.17;65.54;93873.47;567005;26;1629;-71
2024/04/15 00:26:28;;;;;;;2.60;2.20;;;;;;;10.19;65.46;93879.19;567001;26;869;-72
2024/04/15 00:26:45;;;;;;;2.50;2.30;;;;;;;10.19;65.57;93879.94;566895;26;1038;-72
2024/04/15 00:27:00;;;;;;;3.03;2.72;;;;;;;10.19;65.77;93882.69;566913;26;977;-71
2024/04/15 00:27:16;;;;;;;3.23;2.80;;;;;;;10.21;65.70;93873.88;567020;26;841;-72
2024/04/15 00:27:31;;;;;;;3.60;2.70;;;;;;;10.21;65.54;93877.38;566953;26;819;-72
2024/04/15 00:27:46;;;;;;;3.27;2.67;;;;;;;10.23;65.28;93885.13;567022;26;862;-72
2024/04/15 00:28:02;;;;;;;2.65;2.42;;;;;;;10.21;65.25;93879.41;566961;26;815;-71
2024/04/15 00:28:18;;;;;;;3.33;2.47;;;;;;;10.24;65.52;93881.84;566809;26;914;-72
2024/04/15 00:28:33;;;;;;;3.65;2.70;;;;;;;10.25;65.17;93877.78;566900;26;963;-71
2024/04/15 00:28:48;;;;;;;2.90;2.47;;;;;;;10.25;65.16;93879.81;566916;26;912;-72
2024/04/15 00:29:04;;;;;;;2.53;2.30;;;;;;;10.27;64.84;93875.25;567148;26;920;-71
2024/04/15 00:29:19;;;;;;;2.67;2.47;;;;;;;10.29;64.77;93880.22;566944;26;901;-71
2024/04/15 00:29:35;;;;;;;2.80;2.60;;;;;;;10.29;64.78;93882.97;566911;26;822;-71
2024/04/15 00:29:50;;;;;;;3.05;2.50;;;;;;;10.29;64.72;93878.19;566862;26;909;-72
2024/04/15 00:30:07;;;;;;;3.10;2.47;;;;;;;10.28;64.67;93873.97;566935;26;953;-72
2024/04/15 00:30:22;;;;;;;3.90;2.70;;;;;;;10.25;64.88;93880.56;566819;26;1005;-72
2024/04/15 00:30:38;;;;;;;4.60;2.97;;;;;;;10.23;64.53;93876.84;567012;26;877;-72
2024/04/15 00:30:53;;;;;;;3.27;2.97;;;;;;;10.02;64.90;93851.22;566932;26;1096;-71
2024/04/15 00:31:08;;;;;;;2.95;2.70;;;;;;;10.21;64.95;93874.63;566906;26;825;-72
2024/04/15 00:31:24;;;;;;;2.93;2.63;;;;;;;10.21;64.95;93874.63;566926;26;830;-71
2024/04/15 00:31:39;;;;;;;2.95;2.60;;;;;;;10.22;64.94;93875.38;566883;26;944;-71
2024/04/15 00:31:55;;;;;;;2.67;2.47;;;;;;;10.23;64.75;93872.06;567082;26;853;-71
2024/04/15 00:32:10;;;;;;;2.75;2.55;;;;;;;10.24;64.80;93872.81;566908;26;1075;-72
2024/04/15 00:32:25;;;;;;;3.40;2.97;;;;;;;10.23;64.79;93869.31;566959;26;937;-71
2024/04/15 00:32:42;;;;;;;3.63;3.20;;;;;;;10.25;64.78;93877.03;566902;26;778;-72
2024/04/15 00:32:57;;;;;;;3.13;2.83;;;;;;;10.21;64.98;93876.66;567006;26;906;-72
2024/04/15 00:33:13;;;;;;;3.90;2.77;;;;;;;10.20;64.79;93875.91;566965;26;852;-72
2024/04/15 00:33:28;;;;;;;5.30;3.20;;;;;;;10.22;64.79;93869.84;566832;26;813;-72
2024/04/15 00:33:46;;;;;;;4.57;3.05;;;;;;;10.20;64.88;93877.94;566614;26;829;-71
2024/04/15 00:34:01;;;;;;;5.15;2.90;;;;;;;10.18;65.17;93883.97;566555;26;898;-72
2024/04/15 00:34:17;;;;;;;4.83;3.03;;;;;;;10.18;65.13;93874.97;566698;26;841;-71
2024/04/15 00:34:32;;;;;;;3.05;2.80;;;;;;;10.18;65.18;93877.72;566788;26;1114;-72
2024/04/15 00:34:50;;;;;;;3.23;2.93;;;;;;;10.17;65.14;93876.97;566589;26;960;-72
2024/04/15 00:35:06;;;;;;;4.78;3.13;;;;;;;10.16;65.46;93872.72;566838;26;988;-72
2024/04/15 00:35:21;;;;;;;4.50;3.30;;;;;;;10.19;65.24;93873.69;566398;26;818;-72
2024/04/15 00:35:42;;;;;;;3.90;3.00;;;;;;;10.15;65.67;93876.78;566749;26;943;-72
2024/04/15 00:35:57;;;;;;;4.13;2.88;;;;;;;10.14;65.60;93875.28;566646;26;1012;-71
2024/04/15 00:36:13;;;;;;;3.97;2.80;;;;;;;10.16;65.78;93874.75;566693;26;1016;-72
2024/04/15 00:36:28;;;;;;;3.00;2.70;;;;;;;10.15;65.86;93871.25;566676;26;873;-71
2024/04/15 00:36:44;;;;;;;3.20;2.42;;;;;;;10.17;65.71;93876.97;566468;26;900;-71
2024/04/15 00:37:00;;;;;;;3.25;2.28;;;;;;;10.18;65.90;93875.69;566635;26;920;-72
2024/04/15 00:37:16;;;;;;;3.40;2.70;;;;;;;10.20;65.80;93877.94;566752;26;782;-72
2024/04/15 00:37:31;;;;;;;3.20;2.65;;;;;;;10.20;65.75;93873.13;566616;26;905;-71
2024/04/15 00:37:48;;;;;;;3.00;2.70;;;;;;;10.08;65.56;93858.09;566638;26;839;-71
2024/04/15 00:38:04;;;;;;;3.20;2.90;;;;;;;10.21;66.07;93873.88;566553;26;880;-72
2024/04/15 00:38:20;;;;;;;2.90;2.70;;;;;;;10.16;65.91;93878.25;566599;26;837;-71
2024/04/15 00:38:35;;;;;;;3.27;2.83;;;;;;;10.09;66.19;93878.16;566621;26;1644;-71
2024/04/15 00:38:51;;;;;;;3.55;2.78;;;;;;;10.00;66.22;93879.34;566566;26;984;-71
2024/04/15 00:39:06;;;;;;;2.93;2.60;;;;;;;9.95;66.13;93871.91;566778;26;775;-72
2024/04/15 00:39:22;;;;;;;2.78;2.58;;;;;;;9.92;66.04;93876.47;566586;26;841;-71
2024/04/15 00:39:37;;;;;;;2.63;2.43;;;;;;;9.90;66.22;93881.03;566701;26;842;-72
2024/04/15 00:39:54;;;;;;;2.80;2.60;;;;;;;9.88;66.27;93875.31;566597;26;893;-71
2024/04/15 00:40:10;;;;;;;3.22;2.88;;;;;;;9.84;66.38;93869.41;566631;26;854;-71
2024/04/15 00:40:25;;;;;;;4.93;2.95;;;;;;;9.81;66.50;93878.75;566582;26;881;-71
2024/04/15 00:40:41;;;;;;;4.73;2.70;;;;;;;9.79;66.68;93875.75;566602;26;900;-71
2024/04/15 00:40:57;;;;;;;3.08;2.75;;;;;;;9.78;66.87;93879.81;566543;26;841;-71
2024/04/15 00:41:12;;;;;;;3.20;2.87;;;;;;;9.76;66.90;93874.09;566683;26;798;-72
2024/04/15 00:41:27;;;;;;;4.13;2.85;;;;;;;9.78;66.99;93877.06;566559;26;886;-72
2024/04/15 00:41:43;;;;;;;3.60;2.60;;;;;;;9.79;66.95;93878.53;566612;26;869;-72
2024/04/15 00:41:58;;;;;;;3.50;2.77;;;;;;;9.80;66.81;93883.53;566702;26;846;-72
2024/04/15 00:42:14;;;;;;;3.83;3.10;;;;;;;9.81;67.08;93876.00;566543;26;854;-71
2024/04/15 00:42:29;;;;;;;3.87;3.10;;;;;;;9.84;67.09;93883.19;566558;26;834;-71
2024/04/15 00:42:45;;;;;;;3.65;2.90;;;;;;;9.83;66.87;93874.16;566677;26;956;-71
2024/04/15 00:43:01;;;;;;;3.17;2.87;;;;;;;9.67;66.92;93852.47;566679;26;778;-72
2024/04/15 00:43:17;;;;;;;3.22;2.92;;;;;;;9.87;66.98;93885.59;566667;26;944;-71
2024/04/15 00:43:32;;;;;;;3.13;2.83;;;;;;;9.89;66.90;93874.06;566472;26;810;-72
2024/04/15 00:43:48;;;;;;;3.35;3.05;;;;;;;9.89;66.40;93876.81;566617;26;803;-71
2024/04/15 00:44:03;;;;;;;4.07;3.30;;;;;;;9.90;66.33;93876.28;566739;26;945;-71
2024/04/15 00:44:19;;;;;;;3.92;3.15;;;;;;;9.91;66.53;93871.50;566706;26;849;-71
2024/04/15 00:44:34;;;;;;;3.53;2.80;;;;;;;9.90;66.46;93875.53;566633;26;912;-72
2024/04/15 00:44:50;;;;;;;3.28;2.63;;;;;;;9.87;66.14;93879.38;566536;26;1381;-72
2024/04/15 00:45:30;;;;;;;3.35;2.70;;;;;;;9.78;66.35;93874.28;566730;26;845;-71
2024/04/15 00:45:45;;;;;;;3.55;3.05;;;;;;;9.73;66.17;93875.88;562365;26;1124;-71
2024/04/15 00:46:01;;;;;;;3.13;2.83;;;;;;;9.71;66.61;93872.19;564921;26;2251;-72
2024/04/15 00:46:17;;;;;;;4.43;2.90;;;;;;;9.58;66.41;93861.16;566606;26;909;-72
2024/04/15 00:46:33;;;;;;;4.80;3.05;;;;;;;9.58;66.53;93872.94;566654;26;1101;-72
2024/04/15 00:46:48;;;;;;;4.23;3.00;;;;;;;9.53;66.56;93876.53;566693;26;951;-72
2024/04/15 00:47:06;;;;;;;4.00;3.10;;;;;;;9.45;66.68;93874.97;566686;26;849;-73
2024/04/15 00:47:21;;;;;;;3.53;2.72;;;;;;;9.37;66.52;93876.88;566615;26;924;-72
2024/04/15 00:47:37;;;;;;;3.15;2.60;;;;;;;9.27;66.61;93867.56;566726;26;840;-72
2024/04/15 00:47:52;;;;;;;3.63;2.50;;;;;;;9.22;66.96;93865.66;566599;26;799;-72
2024/04/15 00:48:12;;;;;;;3.10;2.30;;;;;;;9.13;67.21;93872.31;566786;26;791;-72
2024/04/15 00:48:28;;;;;;;3.47;2.78;;;;;;;9.08;67.42;93871.16;566397;26;861;-72
2024/04/15 00:48:44;;;;;;;3.33;2.90;;;;;;;9.02;67.48;93870.53;562580;26;811;-72
2024/04/15 00:49:00;;;;;;;3.28;2.80;;;;;;;9.02;67.78;93870.53;559270;26;957;-72
2024/04/15 00:49:15;;;;;;;3.63;2.88;;;;;;;9.02;67.76;93876.03;555492;26;825;-72
2024/04/15 00:49:32;;;;;;;4.33;3.03;;;;;;;9.02;67.88;93873.28;555508;26;964;-73
2024/04/15 00:49:47;;;;;;;3.67;2.78;;;;;;;9.04;67.90;93872.75;555524;26;970;-72
2024/04/15 00:50:03;;;;;;;2.67;2.47;;;;;;;9.06;67.84;93873.69;551962;26;798;-72
2024/04/15 00:50:19;;;;;;;3.27;2.60;;;;;;;9.08;67.56;93875.91;553169;26;941;-72
2024/04/15 00:50:36;;;;;;;3.50;2.67;;;;;;;9.11;67.68;93875.63;556663;26;880;-72
2024/04/15 00:50:51;;;;;;;2.60;2.40;;;;;;;9.14;67.61;93877.28;557003;26;893;-72
2024/04/15 00:51:07;;;;;;;2.92;2.63;;;;;;;9.18;67.60;93873.50;560736;26;991;-72
2024/04/15 00:51:23;;;;;;;3.23;2.77;;;;;;;9.20;67.45;93870.94;562896;26;897;-71
2024/04/15 00:51:40;;;;;;;3.25;2.45;;;;;;;9.21;67.18;93870.41;562781;26;1063;-72
2024/04/15 00:51:56;;;;;;;2.95;2.15;;;;;;;9.25;67.24;93870.84;564518;26;1010;-71
2024/04/15 00:52:12;;;;;;;3.00;2.13;;;;;;;9.27;67.15;93870.31;562928;26;873;-71
2024/04/15 00:52:27;;;;;;;2.72;2.22;;;;;;;9.31;67.04;93870.75;562965;26;793;-71
2024/04/15 00:52:43;;;;;;;2.50;2.30;;;;;;;9.31;66.75;93868.75;564335;26;965;-72
2024/04/15 00:53:01;;;;;;;2.45;2.25;;;;;;;9.34;66.72;93858.66;566771;26;825;-71
2024/04/15 00:53:22;;;;;;;2.60;2.40;;;;;;;9.37;66.72;93874.13;562843;26;924;-72
2024/04/15 00:53:37;;;;;;;2.70;2.50;;;;;;;9.38;66.74;93870.09;563027;26;897;-71
2024/04/15 00:53:54;;;;;;;3.10;2.80;;;;;;;9.36;66.77;93873.38;562885;26;893;-71
2024/04/15 00:54:10;;;;;;;3.08;2.78;;;;;;;9.27;66.82;93849.00;562130;26;1832;-72
2024/04/15 00:54:27;;;;;;;2.97;2.60;;;;;;;9.36;66.95;93870.63;563043;26;1069;-71
2024/04/15 00:54:43;;;;;;;3.17;2.50;;;;;;;9.35;66.95;93871.16;562917;26;837;-72
2024/04/15 00:54:59;;;;;;;2.58;2.33;;;;;;;9.32;67.15;93874.97;562959;26;981;-72
2024/04/15 00:55:14;;;;;;;2.45;2.25;;;;;;;9.31;66.90;93865.97;566240;26;929;-72
2024/04/15 00:55:32;;;;;;;2.30;2.10;;;;;;;9.12;66.76;93840.53;566686;26;822;-71
2024/04/15 00:55:51;;;;;;;2.50;2.30;;;;;;;9.30;66.77;93872.00;566745;26;880;-72
2024/04/15 00:56:07;;;;;;;3.72;2.38;;;;;;;9.20;66.67;93859.94;566910;26;877;-72
2024/04/15 00:56:23;;;;;;;3.70;2.53;;;;;;;9.14;66.88;93862.78;566943;26;917;-72
2024/04/15 00:56:39;;;;;;;2.70;2.50;;;;;;;9.08;66.92;93864.91;566944;26;889;-72
2024/04/15 00:56:55;;;;;;;3.10;2.40;;;;;;;9.06;67.02;93868.19;567025;26;908;-72
2024/04/15 00:57:10;;;;;;;3.38;2.25;;;;;;;9.05;67.08;93872.19;566924;26;870;-72
2024/04/15 00:57:26;;;;;;;2.77;2.07;;;;;;;9.07;66.96;93875.16;566892;26;853;-72
2024/04/15 00:57:43;;;;;;;2.80;2.22;;;;;;;9.10;67.17;93873.38;566944;26;944;-72
2024/04/15 00:58:01;;;;;;;2.67;2.35;;;;;;;9.12;66.98;93860.56;567102;26;884;-72
2024/04/15 00:58:16;;;;;;;2.97;2.67;;;;;;;9.14;67.41;93869.03;567010;26;915;-72
2024/04/15 00:58:32;;;;;;;2.72;2.53;;;;;;;9.15;67.20;93870.53;566745;26;806;-72
2024/04/15 00:58:48;;;;;;;2.65;2.35;;;;;;;9.18;67.36;93865.22;562833;26;928;-72
2024/04/15 00:59:03;;;;;;;2.80;2.47;;;;;;;9.21;67.23;93870.41;563107;26;849;-72
2024/04/15 00:59:19;;;;;;;2.80;2.47;;;;;;;9.22;67.42;93862.91;562986;26;807;-72
2024/04/15 00:59:35;;;;;;;2.60;2.40;;;;;;;9.24;67.18;93868.63;563106;26;822;-72
2024/04/15 00:59:51;;;;;;;2.55;2.35;;;;;;;9.27;67.19;93873.06;559265;26;873;-72
2024/04/15 01:00:07;;;;;;;2.57;2.37;;;;;;;9.27;67.13;93865.53;559400;26;794;-72
2024/04/15 01:00:22;;;;;;;2.53;2.33;;;;;;;9.29;67.19;93860.22;560127;26;952;-72
2024/04/15 01:00:38;;;;;;;2.73;2.50;;;;;;;9.28;67.24;93860.78;562990;26;975;-72
2024/04/15 01:00:54;;;;;;;4.93;2.65;;;;;;;9.30;67.28;93870.00;562885;26;917;-73
2024/04/15 01:01:10;;;;;;;4.57;2.30;;;;;;;9.30;67.26;93869.25;559338;26;822;-72
2024/04/15 01:01:27;;;;;;;3.40;2.30;;;;;;;9.28;67.33;93869.78;559292;26;977;-72
2024/04/15 01:01:42;;;;;;;3.03;2.15;;;;;;;9.31;67.36;93868.75;560426;26;842;-72
2024/04/15 01:01:58;;;;;;;2.40;2.20;;;;;;;9.31;67.20;93862.47;562544;26;830;-72
2024/04/15 01:02:14;;;;;;;2.90;2.60;;;;;;;9.28;67.17;93871.78;564259;26;814;-72
2024/04/15 01:02:29;;;;;;;3.87;2.60;;;;;;;9.23;67.24;93867.88;566760;26;1002;-72
2024/04/15 01:02:45;;;;;;;3.88;2.53;;;;;;;9.10;67.26;93851.34;566724;26;842;-72
2024/04/15 01:03:00;;;;;;;3.47;2.70;;;;;;;9.24;67.19;93860.34;566576;26;885;-72
2024/04/15 01:03:16;;;;;;;4.03;2.50;;;;;;;9.26;66.87;93863.31;566745;26;813;-72
2024/04/15 01:03:32;;;;;;;3.47;2.30;;;;;;;9.26;67.03;93869.56;564163;26;893;-72
2024/04/15 01:03:47;;;;;;;2.70;2.30;;;;;;;9.28;66.93;93864.28;566788;26;804;-72
2024/04/15 01:04:03;;;;;;;3.23;2.23;;;;;;;9.31;66.93;93865.22;566806;26;937;-72
2024/04/15 01:04:19;;;;;;;2.80;2.20;;;;;;;9.29;67.21;93870.53;566534;26;917;-72
2024/04/15 01:04:35;;;;;;;2.77;2.47;;;;;;;9.23;67.29;93867.13;566730;26;921;-72
2024/04/15 01:04:50;;;;;;;2.63;2.42;;;;;;;9.25;67.30;93870.13;566578;26;873;-72
2024/04/15 01:05:06;;;;;;;3.60;2.58;;;;;;;9.23;67.48;93865.13;566724;26;857;-72
2024/04/15 01:05:21;;;;;;;4.10;3.10;;;;;;;9.23;67.28;93870.63;566669;26;833;-72
2024/04/15 01:05:38;;;;;;;3.28;2.97;;;;;;;9.24;67.50;93861.09;566959;26;854;-72
2024/04/15 01:05:53;;;;;;;3.00;2.70;;;;;;;9.25;67.60;93870.84;566679;26;973;-72
2024/04/15 01:06:09;;;;;;;3.70;3.08;;;;;;;9.28;67.33;93863.53;566794;26;838;-72
2024/04/15 01:06:24;;;;;;;3.47;3.03;;;;;;;9.30;67.30;93864.47;566676;26;913;-72
2024/04/15 01:06:40;;;;;;;3.20;2.90;;;;;;;9.32;67.21;93863.94;566661;26;922;-71
2024/04/15 01:06:56;;;;;;;3.58;2.92;;;;;;;9.35;67.19;93860.13;566762;26;897;-72
2024/04/15 01:07:12;;;;;;;3.80;2.70;;;;;;;9.35;67.26;93862.91;562795;26;889;-71
2024/04/15 01:07:27;;;;;;;3.35;2.70;;;;;;;9.37;67.08;93863.84;559291;26;842;-72
2024/04/15 01:07:44;;;;;;;3.43;2.90;;;;;;;9.37;67.12;93863.09;560071;26;838;-71
2024/04/15 01:08:00;;;;;;;3.30;2.67;;;;;;;9.36;67.17;93865.13;562908;26;976;-72
2024/04/15 01:08:17;;;;;;;2.97;2.55;;;;;;;9.36;67.23;93861.59;563004;26;854;-72
2024/04/15 01:08:33;;;;;;;3.17;2.75;;;;;;;9.35;67.02;93865.66;562852;26;882;-71
2024/04/15 01:08:48;;;;;;;3.92;3.03;;;;;;;9.33;67.04;93863.44;563007;26;1125;-71
2024/04/15 01:09:04;;;;;;;4.50;3.10;;;;;;;9.32;67.14;93859.19;564395;26;896;-71
2024/04/15 01:09:19;;;;;;;3.47;2.83;;;;;;;9.34;67.15;93864.16;566810;26;767;-73
2024/04/15 01:09:35;;;;;;;3.10;2.70;;;;;;;9.34;67.07;93862.16;566974;26;830;-71
2024/04/15 01:09:50;;;;;;;3.83;2.87;;;;;;;9.35;67.00;93866.41;566774;26;1709;-71
2024/04/15 01:10:06;;;;;;;3.42;2.80;;;;;;;9.37;66.93;93860.34;566674;26;909;-72
2024/04/15 01:10:21;;;;;;;2.93;2.60;;;;;;;9.38;66.99;93864.56;566630;26;778;-72
2024/04/15 01:10:37;;;;;;;3.92;2.70;;;;;;;9.39;66.91;93861.31;562780;26;1112;-72
2024/04/15 01:10:52;;;;;;;3.87;2.60;;;;;;;9.40;66.66;93862.06;559142;26;853;-72
2024/04/15 01:11:08;;;;;;;3.00;2.67;;;;;;;9.40;66.49;93857.25;559283;26;962;-72
2024/04/15 01:11:23;;;;;;;3.40;2.80;;;;;;;9.39;66.74;93857.81;559107;26;799;-71
2024/04/15 01:11:39;;;;;;;3.42;2.70;;;;;;;9.38;66.55;93856.31;559154;26;1109;-72
2024/04/15 01:11:54;;;;;;;3.07;2.77;;;;;;;9.39;66.29;93857.81;559984;26;854;-71
2024/04/15 01:12:10;;;;;;;3.45;2.83;;;;;;;9.38;66.38;93857.06;562850;26;819;-72
2024/04/15 01:12:25;;;;;;;2.97;2.63;;;;;;;9.37;66.28;93863.09;559862;26;957;-71
2024/04/15 01:12:41;;;;;;;3.90;2.70;;;;;;;9.40;66.56;93864.81;563443;26;980;-72
2024/04/15 01:12:57;;;;;;;4.43;2.80;;;;;;;9.39;66.68;93863.31;566713;26;917;-72
2024/04/15 01:13:12;;;;;;;2.92;2.60;;;;;;;9.39;66.64;93864.06;562909;26;854;-72
2024/04/15 01:13:28;;;;;;;2.63;2.42;;;;;;;9.39;66.44;93866.81;559236;26;1107;-71
2024/04/15 01:13:43;;;;;;;2.80;2.40;;;;;;;9.39;66.62;93861.31;559227;26;834;-72
2024/04/15 01:14:01;;;;;;;3.22;2.47;;;;;;;9.41;66.46;93861.50;559177;26;1156;-71
2024/04/15 01:14:17;;;;;;;2.95;2.22;;;;;;;9.37;66.50;93858.34;560539;26;1853;-72
2024/04/15 01:14:33;;;;;;;2.83;2.28;;;;;;;9.41;66.36;93866.28;562921;26;1769;-71
2024/04/15 01:14:48;;;;;;;2.93;2.43;;;;;;;9.43;66.40;93863.72;559134;26;1099;-71
2024/04/15 01:15:04;;;;;;;2.97;2.17;;;;;;;9.42;66.10;93857.47;560753;26;992;-72
2024/04/15 01:15:20;;;;;;;3.03;2.15;;;;;;;9.41;66.33;93864.28;564265;26;1093;-72
2024/04/15 01:15:35;;;;;;;3.17;2.47;;;;;;;9.38;66.10;93867.34;566609;26;995;-72
2024/04/15 01:15:58;;;;;;;2.80;2.47;;;;;;;9.39;66.32;93866.06;566612;26;1196;-72
2024/04/15 01:16:13;;;;;;;2.75;2.40;;;;;;;9.38;66.29;93867.34;566659;26;953;-72
2024/04/15 01:16:38;;;;;;;2.50;2.30;;;;;;;9.35;66.28;93860.13;566742;26;802;-72
2024/04/15 01:16:54;;;;;;;3.22;2.10;;;;;;;9.35;66.20;93863.66;566816;26;1035;-71
2024/04/15 01:17:09;;;;;;;2.90;2.13;;;;;;;9.36;65.98;93861.59;566910;26;1023;-72
2024/04/15 01:17:25;;;;;;;3.00;2.33;;;;;;;9.36;66.13;93856.09;566958;26;1016;-71
2024/04/15 01:17:42;;;;;;;3.37;2.40;;;;;;;9.37;65.76;93869.38;566892;26;818;-72
2024/04/15 01:17:57;;;;;;;2.70;2.20;;;;;;;9.37;65.84;93860.34;566988;26;897;-71
2024/04/15 01:18:13;;;;;;;2.40;1.90;;;;;;;9.37;65.86;93861.09;566772;26;815;-72
2024/04/15 01:18:28;;;;;;;2.80;1.90;;;;;;;9.39;65.82;93860.56;566906;26;932;-72